Latest Weather Observations for South Channel Island

IDV60801

Issued at 4:35 pm EST Wednesday 23 April 2014 (issued every 30 minutes, with the page automatically refreshed every 10 minutes)

About weather observations | Map of weather stations | Latest weather observations for VIC | Other Formats
Station Details ID: 086344 Name: SOUTH CHANNEL ISLAND Lat: -38.31 Lon: 144.80 Height: 9.0 m
Data from the previous 72 hours. | See also: Recent months for locations in Victoria
Date/Time
EST
Temp
°C
App
Temp
°C
Dew
Point
Rel
Hum
%
Delta-T
°C
Wind Press
QNH
hPa
Press
MSL
hPa
Rain
since 9 am
mm
Dir
 
Spd
km/h
Gust
km/h
Spd
kts
Gust
kts
23/04:30pm - - - - - NNW 7 9 4 5 - - -
23/04:00pm - - - - - W 11 15 6 8 - - -
23/03:30pm - - - - - W 11 13 6 7 - - -
23/03:00pm - - - - - WNW 13 17 7 9 - - -
23/02:30pm - - - - - NW 15 19 8 10 - - -
23/02:00pm - - - - - NNW 15 19 8 10 - - -
23/01:30pm - - - - - NNW 17 20 9 11 - - -
23/01:00pm - - - - - NW 20 24 11 13 - - -
23/12:30pm - - - - - NW 20 24 11 13 - - -
23/12:00pm - - - - - NW 13 17 7 9 - - -
23/11:30am - - - - - WNW 13 15 7 8 - - -
23/11:00am - - - - - WNW 15 19 8 10 - - -
23/10:30am - - - - - W 17 19 9 10 - - -
23/10:00am - - - - - W 20 22 11 12 - - -
23/09:30am - - - - - W 20 24 11 13 - - -
23/09:00am - - - - - W 20 24 11 13 - - -
23/08:30am - - - - - W 15 17 8 9 - - -
23/08:00am - - - - - W 20 22 11 12 - - -
23/07:30am - - - - - W 20 22 11 12 - - -
23/07:00am - - - - - W 19 20 10 11 - - -
23/06:30am - - - - - W 19 20 10 11 - - -
23/06:00am - - - - - W 17 19 9 10 - - -
23/05:30am - - - - - W 15 17 8 9 - - -
23/05:00am - - - - - W 15 17 8 9 - - -
23/04:30am - - - - - W 15 17 8 9 - - -
23/04:00am - - - - - W 17 19 9 10 - - -
23/03:30am - - - - - W 17 19 9 10 - - -
23/03:00am - - - - - W 15 17 8 9 - - -
23/02:30am - - - - - SW 9 11 5 6 - - -
23/02:00am - - - - - SW 9 11 5 6 - - -
23/01:30am - - - - - W 13 15 7 8 - - -
23/01:00am - - - - - SSW 2 7 1 4 - - -
23/12:30am - - - - - SE 2 7 1 4 - - -
23/12:00am - - - - - SE 7 9 4 5 - - -
 
Date/Time
EST
Temp
°C
App
Temp
°C
Dew
Point
Rel
Hum
%
Delta-T
°C
Wind Press
QNH
hPa
Press
MSL
hPa
Rain
since 9 am
mm
Dir
 
Spd
km/h
Gust
km/h
Spd
kts
Gust
kts
22/11:30pm - - - - - S 9 13 5 7 - - -
22/11:00pm - - - - - SW 13 15 7 8 - - -
22/10:30pm - - - - - SSW 13 15 7 8 - - -
22/10:00pm - - - - - SSW 13 15 7 8 - - -
22/09:30pm - - - - - SW 13 17 7 9 - - -
22/09:00pm - - - - - SSW 15 17 8 9 - - -
22/08:30pm - - - - - SSW 17 19 9 10 - - -
22/08:00pm - - - - - S 17 19 9 10 - - -
22/07:30pm - - - - - S 24 26 13 14 - - -
22/07:00pm - - - - - SSW 24 28 13 15 - - -
22/06:30pm - - - - - SSW 26 30 14 16 - - -
22/06:00pm - - - - - SSW 26 30 14 16 - - -
22/05:30pm - - - - - SSW 26 32 14 17 - - -
22/05:00pm - - - - - SSW 24 28 13 15 - - -
22/04:30pm - - - - - SSW 28 32 15 17 - - -
22/04:00pm - - - - - SSW 30 33 16 18 - - -
22/03:30pm - - - - - SSW 26 32 14 17 - - -
22/03:00pm - - - - - SSW 26 30 14 16 - - -
22/02:30pm - - - - - SSW 26 33 14 18 - - -
22/02:00pm - - - - - SW 30 37 16 20 - - -
22/01:30pm - - - - - NNW 20 24 11 13 - - -
22/01:00pm - - - - - NNW 26 30 14 16 - - -
22/12:30pm - - - - - N 33 37 18 20 - - -
22/12:00pm - - - - - N 35 39 19 21 - - -
22/11:30am - - - - - N 37 43 20 23 - - -
22/11:00am - - - - - N 37 43 20 23 - - -
22/10:30am - - - - - N 44 50 24 27 - - -
22/10:00am - - - - - N 43 50 23 27 - - -
22/09:30am - - - - - N 48 54 26 29 - - -
22/09:00am - - - - - N 50 56 27 30 - - -
22/08:30am - - - - - N 50 57 27 31 - - -
22/08:00am - - - - - N 44 50 24 27 - - -
22/07:30am - - - - - N 46 56 25 30 - - -
22/07:00am - - - - - N 39 50 21 27 - - -
22/06:30am - - - - - NNW 39 48 21 26 - - -
22/06:00am - - - - - NNW 44 54 24 29 - - -
22/05:30am - - - - - NNW 48 56 26 30 - - -
22/05:00am - - - - - NNW 43 56 23 30 - - -
22/04:57am - - - - - NNW 39 56 21 30 - - -
22/04:30am - - - - - NNW 32 37 17 20 - - -
22/04:00am - - - - - NW 33 39 18 21 - - -
22/03:30am - - - - - NNW 30 39 16 21 - - -
22/03:00am - - - - - NW 32 37 17 20 - - -
22/02:52am - - - - - WNW 33 52 18 28 - - -
22/02:30am - - - - - WNW 39 48 21 26 - - -
22/02:00am - - - - - NW 35 44 19 24 - - -
22/01:51am - - - - - NW 35 43 19 23 - - -
22/01:40am - - - - - NNW 43 50 23 27 - - -
22/01:30am - - - - - NW 35 43 19 23 - - -
22/01:00am - - - - - NW 32 41 17 22 - - -
22/12:40am - - - - - NW 43 52 23 28 - - -
22/12:30am - - - - - N 54 63 29 34 - - -
22/12:00am - - - - - N 56 65 30 35 - - -
 
Date/Time
EST
Temp
°C
App
Temp
°C
Dew
Point
Rel
Hum
%
Delta-T
°C
Wind Press
QNH
hPa
Press
MSL
hPa
Rain
since 9 am
mm
Dir
 
Spd
km/h
Gust
km/h
Spd
kts
Gust
kts
21/11:30pm - - - - - N 56 65 30 35 - - -
21/11:00pm - - - - - N 57 67 31 36 - - -
21/10:30pm - - - - - N 59 69 32 37 - - -
21/10:00pm - - - - - N 61 72 33 39 - - -
21/09:30pm - - - - - N 56 65 30 35 - - -
21/09:00pm - - - - - N 57 69 31 37 - - -
21/08:30pm - - - - - N 57 70 31 38 - - -
21/08:00pm - - - - - N 54 63 29 34 - - -
21/07:30pm - - - - - N 54 69 29 37 - - -
21/07:00pm - - - - - N 54 67 29 36 - - -
21/06:30pm - - - - - N 56 67 30 36 - - -
21/06:00pm - - - - - N 57 69 31 37 - - -
21/05:30pm - - - - - N 59 70 32 38 - - -
21/05:00pm - - - - - N 57 67 31 36 - - -
21/04:30pm - - - - - N 57 70 31 38 - - -
21/04:00pm - - - - - N 54 61 29 33 - - -
21/03:30pm - - - - - N 54 63 29 34 - - -
21/03:00pm - - - - - N 50 57 27 31 - - -
21/02:30pm - - - - - N 46 56 25 30 - - -
21/02:00pm - - - - - N 46 56 25 30 - - -
21/01:30pm - - - - - N 52 59 28 32 - - -
21/01:00pm - - - - - N 52 61 28 33 - - -
21/12:30pm - - - - - N 52 61 28 33 - - -
21/12:00pm - - - - - N 52 57 28 31 - - -
21/11:30am - - - - - N 50 57 27 31 - - -
21/11:00am - - - - - N 52 57 28 31 - - -
21/10:30am - - - - - N 50 56 27 30 - - -
21/10:00am - - - - - N 48 56 26 30 - - -
21/09:30am - - - - - N 48 56 26 30 - - -
21/09:00am - - - - - N 50 56 27 30 - - -
21/08:30am - - - - - N 44 52 24 28 - - -
21/08:00am - - - - - N 41 48 22 26 - - -
21/07:30am - - - - - N 33 37 18 20 - - -
21/07:00am - - - - - N 37 41 20 22 - - -
21/06:30am - - - - - N 43 48 23 26 - - -
21/06:00am - - - - - N 32 41 17 22 - - -
21/05:30am - - - - - N 35 41 19 22 - - -
21/05:00am - - - - - N 35 43 19 23 - - -
21/04:30am - - - - - N 33 37 18 20 - - -
21/04:00am - - - - - N 32 35 17 19 - - -
21/03:30am - - - - - N 30 35 16 19 - - -
21/03:00am - - - - - N 30 33 16 18 - - -
21/02:30am - - - - - N 33 39 18 21 - - -
21/02:00am - - - - - N 37 41 20 22 - - -
21/01:30am - - - - - N 37 39 20 21 - - -
21/01:00am - - - - - N 33 39 18 21 - - -
21/12:30am - - - - - N 30 33 16 18 - - -
21/12:00am - - - - - N 28 32 15 17 - - -
 
Date/Time
EST
Temp
°C
App
Temp
°C
Dew
Point
Rel
Hum
%
Delta-T
°C
Wind Press
QNH
hPa
Press
MSL
hPa
Rain
since 9 am
mm
Dir
 
Spd
km/h
Gust
km/h
Spd
kts
Gust
kts
20/11:30pm - - - - - N 33 37 18 20 - - -
20/11:00pm - - - - - N 33 37 18 20 - - -
20/10:30pm - - - - - N 32 35 17 19 - - -
20/10:00pm - - - - - NNW 30 33 16 18 - - -
20/09:30pm - - - - - NNW 28 33 15 18 - - -
20/09:00pm - - - - - N 28 33 15 18 - - -
20/08:30pm - - - - - N 26 28 14 15 - - -
20/08:00pm - - - - - N 19 20 10 11 - - -
20/07:30pm - - - - - NNW 15 19 8 10 - - -
20/07:00pm - - - - - NNW 15 17 8 9 - - -
20/06:30pm - - - - - NW 19 20 10 11 - - -
20/06:00pm - - - - - WNW 20 24 11 13 - - -
20/05:30pm - - - - - WNW 22 30 12 16 - - -
20/05:00pm - - - - - W 24 28 13 15 - - -

Other Formats:

Comma delimited format used in spreadsheet applications
http://www.bom.gov.au/fwo/IDV60801/IDV60801.94853.axf

JavaScript Object Notation format (JSON) in row-major order
http://www.bom.gov.au/fwo/IDV60801/IDV60801.94853.json